createdAt,value
2022-10-30T00:00:47.093Z,54.13
2022-10-30T00:03:15.064Z,53.80
2022-10-30T00:05:47.394Z,54.60
2022-10-30T00:08:16.654Z,54.39
2022-10-30T00:10:44.358Z,54.72
2022-10-30T00:13:12.341Z,54.75
2022-10-30T00:15:39.294Z,54.48
2022-10-30T00:18:06.308Z,54.33
2022-10-30T00:20:33.299Z,55.13
2022-10-30T00:23:00.477Z,54.79
2022-10-30T00:25:27.650Z,55.07
2022-10-30T00:27:54.553Z,55.12
2022-10-30T00:30:21.468Z,55.22
2022-10-30T00:32:48.395Z,55.28
2022-10-30T00:35:15.719Z,54.97
2022-10-30T00:37:42.564Z,54.97
2022-10-30T00:40:15.390Z,55.28
2022-10-30T00:42:43.145Z,55.00
2022-10-30T00:45:14.919Z,54.96
2022-10-30T00:47:54.908Z,54.58
2022-10-30T00:50:30.800Z,55.36
2022-10-30T00:53:03.308Z,55.62
2022-10-30T00:55:38.234Z,55.74
2022-10-30T00:58:07.987Z,56.34
2022-10-30T01:00:39.399Z,56.38
2022-10-30T01:03:06.546Z,56.21
2022-10-30T01:05:34.775Z,56.87
2022-10-30T01:08:01.961Z,57.12
2022-10-30T01:10:29.096Z,56.42
2022-10-30T01:12:58.748Z,57.05
2022-10-30T01:15:35.442Z,56.93
2022-10-30T01:18:18.235Z,56.87
2022-10-30T01:20:54.366Z,57.03
2022-10-30T01:23:46.021Z,57.56
2022-10-30T01:26:28.823Z,57.80
2022-10-30T01:29:07.270Z,58.29
2022-10-30T01:31:41.489Z,58.32
2022-10-30T01:34:47.605Z,57.99
2022-10-30T01:37:39.224Z,57.57
2022-10-30T01:40:12.141Z,57.50
2022-10-30T01:42:44.373Z,57.57
2022-10-30T01:45:19.772Z,57.25
2022-10-30T01:47:49.751Z,56.95
2022-10-30T01:50:22.683Z,56.82
2022-10-30T01:53:08.549Z,56.87
2022-10-30T01:55:57.794Z,56.92
2022-10-30T01:58:42.265Z,56.94
2022-10-30T02:01:09.350Z,56.89
2022-10-30T02:03:36.663Z,56.74
2022-10-30T02:06:03.750Z,56.53
2022-10-30T02:08:30.762Z,56.56
2022-10-30T02:10:58.846Z,56.43
2022-10-30T02:13:39.627Z,55.79
2022-10-30T02:16:09.049Z,55.67
2022-10-30T02:18:36.421Z,55.66
2022-10-30T02:21:03.830Z,56.01
2022-10-30T02:23:33.301Z,55.89
2022-10-30T02:26:00.275Z,55.90
2022-10-30T02:28:27.876Z,55.58
2022-10-30T02:30:55.109Z,55.41
2022-10-30T02:33:23.570Z,55.37
2022-10-30T02:35:51.513Z,54.94
2022-10-30T02:38:18.886Z,54.59
2022-10-30T02:40:45.857Z,54.65
2022-10-30T02:43:12.794Z,54.67
2022-10-30T02:45:39.679Z,54.74
2022-10-30T02:48:07.557Z,54.24
2022-10-30T02:50:34.603Z,54.28
2022-10-30T02:53:01.605Z,54.08
2022-10-30T02:55:28.773Z,53.67
2022-10-30T02:57:55.815Z,53.55
2022-10-30T03:00:22.779Z,53.62
2022-10-30T03:02:55.058Z,53.17
2022-10-30T03:05:22.445Z,52.76
2022-10-30T03:07:49.710Z,52.64
2022-10-30T03:10:16.681Z,52.38
2022-10-30T03:12:43.935Z,51.97
2022-10-30T03:15:11.231Z,52.11
2022-10-30T03:17:38.175Z,52.44
2022-10-30T03:20:05.485Z,52.48
2022-10-30T03:22:33.349Z,51.77
2022-10-30T03:25:00.294Z,52.28
2022-10-30T03:27:27.285Z,51.19
2022-10-30T03:29:54.174Z,51.61
2022-10-30T03:32:21.150Z,51.84
2022-10-30T03:34:53.068Z,51.08
2022-10-30T03:37:20.074Z,51.46
2022-10-30T03:39:47.001Z,51.26
2022-10-30T03:42:13.848Z,51.04
2022-10-30T03:44:40.797Z,51.10
2022-10-30T03:47:08.459Z,51.27
2022-10-30T03:49:40.328Z,50.06
2022-10-30T03:52:11.165Z,50.75
2022-10-30T03:54:38.039Z,51.23
2022-10-30T03:57:04.985Z,50.96
2022-10-30T03:59:41.325Z,51.27
2022-10-30T04:02:40.378Z,51.33
2022-10-30T04:05:09.024Z,51.64
2022-10-30T04:07:35.931Z,50.89
2022-10-30T04:10:03.144Z,51.04
2022-10-30T04:12:30.141Z,51.08
2022-10-30T04:14:57.053Z,51.03
2022-10-30T04:17:23.983Z,51.08
2022-10-30T04:19:51.059Z,50.66
2022-10-30T04:22:18.004Z,51.03
2022-10-30T04:24:45.479Z,50.94
2022-10-30T04:27:13.449Z,51.50
2022-10-30T04:29:42.224Z,51.42
2022-10-30T04:32:10.754Z,51.12
2022-10-30T04:34:39.542Z,50.39
2022-10-30T04:37:07.290Z,50.45
2022-10-30T04:39:34.287Z,50.37
2022-10-30T04:42:13.266Z,50.43
2022-10-30T04:44:42.358Z,50.13
2022-10-30T04:47:10.777Z,50.27
2022-10-30T04:49:38.144Z,49.32
2022-10-30T04:52:05.033Z,49.28
2022-10-30T04:54:32.008Z,48.78
2022-10-30T04:56:59.156Z,49.09
2022-10-30T04:59:26.101Z,48.20
2022-10-30T05:01:54.424Z,48.97
2022-10-30T05:04:21.502Z,48.51
2022-10-30T05:06:48.533Z,49.27
2022-10-30T05:09:16.252Z,48.76
2022-10-30T05:11:43.209Z,48.42
2022-10-30T05:14:10.154Z,47.84
2022-10-30T05:16:38.128Z,49.12
2022-10-30T05:19:05.487Z,49.45
2022-10-30T05:21:34.065Z,49.79
2022-10-30T05:24:01.380Z,50.17
2022-10-30T05:26:34.278Z,49.40
2022-10-30T05:29:01.278Z,50.15
2022-10-30T05:31:28.744Z,50.40
2022-10-30T05:34:14.155Z,50.65
2022-10-30T05:36:41.926Z,50.76
2022-10-30T05:39:10.136Z,50.61
2022-10-30T05:41:41.001Z,50.94
2022-10-30T05:44:08.296Z,50.53
2022-10-30T05:46:35.215Z,51.02
2022-10-30T05:49:18.272Z,51.06
2022-10-30T05:51:45.439Z,51.00
2022-10-30T05:54:12.621Z,51.53
2022-10-30T05:56:51.125Z,51.38
2022-10-30T05:59:18.261Z,51.62
2022-10-30T06:04:12.865Z,52.44
2022-10-30T06:06:40.623Z,52.40
2022-10-30T06:09:07.522Z,52.67
2022-10-30T06:11:54.501Z,53.09
2022-10-30T06:14:28.909Z,52.98
2022-10-30T06:16:55.902Z,53.84
2022-10-30T06:19:31.786Z,53.87
2022-10-30T06:22:11.426Z,54.01
2022-10-30T06:24:46.107Z,53.97
2022-10-30T06:27:36.417Z,53.30
2022-10-30T06:30:06.262Z,53.34
2022-10-30T06:32:33.410Z,53.91
2022-10-30T06:35:00.591Z,54.06
2022-10-30T06:37:28.322Z,54.07
2022-10-30T06:39:55.304Z,54.95
2022-10-30T06:42:46.411Z,55.10
2022-10-30T06:45:28.970Z,55.91
2022-10-30T06:47:56.642Z,54.94
2022-10-30T06:50:24.555Z,55.56
2022-10-30T06:52:51.816Z,55.57
2022-10-30T06:55:18.758Z,57.69
2022-10-30T06:58:04.445Z,56.29
2022-10-30T07:00:42.069Z,55.41
2022-10-30T07:03:32.779Z,52.80
2022-10-30T07:05:59.870Z,54.74
2022-10-30T07:08:27.122Z,42.45
2022-10-30T07:10:57.973Z,49.20
2022-10-30T07:13:53.985Z,48.58
2022-10-30T07:16:35.591Z,46.09
2022-10-30T07:19:04.729Z,43.11
2022-10-30T07:21:33.494Z,41.69
2022-10-30T07:24:05.338Z,39.79
2022-10-30T07:26:44.333Z,42.80
2022-10-30T07:29:40.321Z,43.45
2022-10-30T07:32:32.962Z,37.95
2022-10-30T07:35:35.567Z,39.70
2022-10-30T07:38:37.880Z,43.02
2022-10-30T07:41:25.260Z,39.86
2022-10-30T07:44:12.003Z,39.83
2022-10-30T07:46:46.902Z,36.84
2022-10-30T07:49:32.273Z,37.25
2022-10-30T07:52:05.263Z,38.11
2022-10-30T07:54:32.481Z,39.33
2022-10-30T07:57:09.509Z,39.32
2022-10-30T08:00:07.366Z,38.87
2022-10-30T08:02:40.614Z,37.98
2022-10-30T08:05:20.058Z,37.94
2022-10-30T08:08:05.134Z,37.71
2022-10-30T08:10:32.191Z,36.74
2022-10-30T08:12:59.137Z,36.63
2022-10-30T08:15:26.187Z,35.86
2022-10-30T08:17:54.385Z,35.83
2022-10-30T08:20:24.426Z,36.98
2022-10-30T08:22:57.090Z,34.85
2022-10-30T08:25:30.623Z,35.76
2022-10-30T08:27:58.148Z,37.15
2022-10-30T08:30:30.170Z,36.23
2022-10-30T08:33:03.724Z,36.54
2022-10-30T08:35:58.054Z,35.85
2022-10-30T08:38:27.357Z,35.42
2022-10-30T08:41:12.398Z,36.05
2022-10-30T08:43:46.267Z,36.79
2022-10-30T08:46:13.266Z,36.97
2022-10-30T08:48:41.072Z,37.79
2022-10-30T08:51:08.131Z,38.62
2022-10-30T08:53:38.017Z,37.99
2022-10-30T08:56:10.003Z,37.70
2022-10-30T08:58:57.180Z,38.00
2022-10-30T09:01:24.142Z,38.56
2022-10-30T09:04:20.426Z,37.95
2022-10-30T09:07:19.482Z,38.57
2022-10-30T09:10:05.036Z,38.75
2022-10-30T09:12:34.204Z,38.57
2022-10-30T09:15:01.706Z,36.25
2022-10-30T09:17:30.760Z,37.36
2022-10-30T09:19:57.641Z,37.33
2022-10-30T09:22:33.852Z,37.37
2022-10-30T09:25:01.888Z,36.04
2022-10-30T09:27:47.414Z,37.74
2022-10-30T09:30:16.348Z,37.90
2022-10-30T09:32:46.674Z,37.84
2022-10-30T09:35:19.001Z,37.82
2022-10-30T09:37:45.982Z,37.09
2022-10-30T09:40:29.917Z,35.18
2022-10-30T09:43:08.875Z,37.41
2022-10-30T09:45:57.410Z,35.59
2022-10-30T09:48:46.307Z,33.36
2022-10-30T09:51:20.205Z,36.37
2022-10-30T09:54:00.546Z,36.02
2022-10-30T09:56:40.057Z,36.29
2022-10-30T09:59:28.455Z,33.78
2022-10-30T10:02:04.364Z,36.16
2022-10-30T10:05:06.315Z,34.92
2022-10-30T10:08:02.487Z,35.08
2022-10-30T10:10:53.467Z,35.74
2022-10-30T10:13:36.233Z,36.25
2022-10-30T10:16:36.768Z,34.04
2022-10-30T10:19:09.829Z,35.60
2022-10-30T10:21:44.101Z,35.98
2022-10-30T10:24:38.634Z,35.84
2022-10-30T10:27:56.166Z,34.69
2022-10-30T10:30:24.971Z,35.29
2022-10-30T10:33:07.029Z,35.95
2022-10-30T10:35:42.129Z,34.87
2022-10-30T10:38:15.174Z,34.89
2022-10-30T10:40:57.398Z,35.06
2022-10-30T10:43:53.915Z,34.95
2022-10-30T10:46:39.239Z,34.16
2022-10-30T10:49:08.761Z,34.22
2022-10-30T10:51:42.318Z,34.81
2022-10-30T10:54:22.726Z,32.21
2022-10-30T10:56:52.068Z,33.16
2022-10-30T10:59:30.232Z,34.13
2022-10-30T11:02:36.147Z,35.02
2022-10-30T11:05:43.136Z,34.65
2022-10-30T11:08:22.700Z,34.96
2022-10-30T11:10:56.812Z,35.20
2022-10-30T11:13:27.920Z,34.67
2022-10-30T11:16:36.896Z,34.44
2022-10-30T11:19:08.185Z,34.29
2022-10-30T11:21:42.091Z,34.38
2022-10-30T11:24:29.654Z,33.46
2022-10-30T11:26:58.744Z,34.29
2022-10-30T11:29:30.123Z,31.97
2022-10-30T11:32:05.775Z,34.22
2022-10-30T11:34:36.373Z,34.28
2022-10-30T11:37:04.744Z,33.67
2022-10-30T11:39:35.675Z,33.89
2022-10-30T11:42:04.820Z,33.51
2022-10-30T11:44:36.209Z,34.43
2022-10-30T11:47:04.855Z,33.64
2022-10-30T11:49:45.059Z,34.06
2022-10-30T11:52:15.143Z,34.11
2022-10-30T11:54:48.476Z,33.03
2022-10-30T11:57:18.149Z,33.55
2022-10-30T11:59:47.459Z,33.05
2022-10-30T12:02:22.388Z,33.71
2022-10-30T12:04:51.592Z,33.41
2022-10-30T12:07:24.305Z,32.70
2022-10-30T12:09:51.491Z,34.03
2022-10-30T12:12:18.320Z,31.91
2022-10-30T12:14:45.327Z,33.27
2022-10-30T12:17:15.928Z,33.51
2022-10-30T12:19:49.665Z,34.23
2022-10-30T12:22:31.583Z,32.27
2022-10-30T12:25:02.201Z,33.63
2022-10-30T12:27:31.998Z,33.42
2022-10-30T12:30:09.912Z,32.41
2022-10-30T12:32:47.108Z,31.77
2022-10-30T12:35:26.025Z,30.89
2022-10-30T12:37:54.943Z,31.21
2022-10-30T12:40:28.304Z,33.19
2022-10-30T12:43:12.019Z,32.89
2022-10-30T12:45:45.643Z,32.01
2022-10-30T12:48:22.152Z,32.98
2022-10-30T12:51:15.937Z,31.61
2022-10-30T12:54:12.294Z,33.00
2022-10-30T12:56:44.564Z,33.29
2022-10-30T12:59:39.534Z,32.77
2022-10-30T13:02:30.395Z,32.64
2022-10-30T13:05:02.749Z,33.12
2022-10-30T13:07:55.616Z,33.04
2022-10-30T13:11:14.900Z,33.39
2022-10-30T13:13:48.499Z,33.19
2022-10-30T13:16:36.216Z,32.66
2022-10-30T13:19:04.053Z,31.41
2022-10-30T13:21:51.755Z,32.30
2022-10-30T13:24:28.941Z,31.94
2022-10-30T13:27:10.305Z,32.67
2022-10-30T13:30:09.825Z,31.59
2022-10-30T13:33:07.943Z,31.91
2022-10-30T13:35:43.686Z,32.55
2022-10-30T13:38:16.217Z,31.89
2022-10-30T13:40:49.510Z,31.85
2022-10-30T13:43:25.249Z,31.72
2022-10-30T13:46:24.523Z,32.56
2022-10-30T13:49:08.823Z,33.01
2022-10-30T13:51:45.776Z,33.33
2022-10-30T13:54:39.441Z,33.82
2022-10-30T13:57:20.365Z,33.84
2022-10-30T13:59:50.565Z,34.06
2022-10-30T14:02:43.799Z,33.62
2022-10-30T14:05:41.837Z,34.46
2022-10-30T14:08:37.825Z,35.34
2022-10-30T14:11:14.107Z,35.46
2022-10-30T14:13:58.536Z,35.35
2022-10-30T14:16:42.124Z,35.49
2022-10-30T14:19:16.536Z,35.65
2022-10-30T14:21:44.687Z,36.45
2022-10-30T14:24:19.866Z,36.77
2022-10-30T14:26:52.702Z,37.24
2022-10-30T14:29:35.706Z,37.45
2022-10-30T14:32:14.614Z,38.12
2022-10-30T14:34:50.512Z,38.63
2022-10-30T14:37:38.509Z,38.97
2022-10-30T14:40:34.455Z,38.93
2022-10-30T14:43:08.730Z,38.37
2022-10-30T14:45:49.641Z,39.25
2022-10-30T14:48:26.891Z,39.97
2022-10-30T14:51:03.891Z,40.16
2022-10-30T14:53:53.094Z,39.65
2022-10-30T14:56:47.969Z,39.53
2022-10-30T14:59:14.801Z,38.84
2022-10-30T15:01:44.884Z,38.31
2022-10-30T15:04:30.677Z,38.48
2022-10-30T15:07:16.459Z,39.11
2022-10-30T15:10:05.081Z,38.98
2022-10-30T15:13:02.191Z,38.60
2022-10-30T15:15:30.221Z,39.00
2022-10-30T15:18:01.569Z,38.62
2022-10-30T15:20:34.102Z,38.87
2022-10-30T15:23:04.858Z,39.01
2022-10-30T15:25:37.027Z,39.18
2022-10-30T15:28:04.525Z,39.17
2022-10-30T15:30:31.427Z,39.00
2022-10-30T15:32:58.720Z,39.02
2022-10-30T15:35:28.161Z,38.96
2022-10-30T15:38:05.337Z,39.27
2022-10-30T15:40:35.065Z,39.11
2022-10-30T15:43:04.877Z,39.02
2022-10-30T15:45:41.318Z,39.53
2022-10-30T15:48:32.862Z,39.72
2022-10-30T15:51:01.203Z,39.49
2022-10-30T15:54:03.500Z,39.68
2022-10-30T15:56:59.859Z,39.38
2022-10-30T15:59:30.609Z,39.80
2022-10-30T16:01:58.851Z,40.13
2022-10-30T16:04:31.302Z,39.98
2022-10-30T16:07:04.566Z,40.28
2022-10-30T16:09:31.612Z,40.23
2022-10-30T16:12:00.729Z,40.68
2022-10-30T16:14:35.958Z,40.81
2022-10-30T16:17:06.406Z,41.15
2022-10-30T16:19:42.622Z,41.61
2022-10-30T16:22:16.566Z,42.82
2022-10-30T16:24:43.808Z,43.35
2022-10-30T16:27:21.711Z,43.22
2022-10-30T16:29:56.032Z,43.42
2022-10-30T16:32:26.304Z,43.95
2022-10-30T16:35:04.171Z,43.45
2022-10-30T16:37:36.597Z,43.33
2022-10-30T16:40:13.475Z,42.95
2022-10-30T16:42:40.796Z,42.97
2022-10-30T16:45:10.618Z,42.82
2022-10-30T16:47:41.055Z,42.76
2022-10-30T16:50:12.772Z,42.44
2022-10-30T16:52:39.760Z,42.61
2022-10-30T16:55:22.846Z,42.94
2022-10-30T16:57:58.565Z,43.21
2022-10-30T17:00:30.554Z,43.37
2022-10-30T17:03:11.331Z,43.42
2022-10-30T17:05:40.752Z,43.46
2022-10-30T17:08:31.288Z,43.62
2022-10-30T17:11:02.808Z,43.93
2022-10-30T17:13:36.484Z,43.91
2022-10-30T17:16:36.189Z,44.28
2022-10-30T17:19:38.705Z,44.21
2022-10-30T17:22:13.943Z,44.25
2022-10-30T17:24:41.024Z,44.27
2022-10-30T17:27:30.801Z,44.22
2022-10-30T17:29:57.974Z,44.30
2022-10-30T17:33:02.776Z,44.12
2022-10-30T17:35:30.144Z,44.03
2022-10-30T17:37:59.812Z,44.36
2022-10-30T17:40:29.762Z,44.18
2022-10-30T17:42:56.661Z,44.39
2022-10-30T17:45:23.519Z,44.20
2022-10-30T17:47:50.329Z,44.13
2022-10-30T17:50:17.582Z,44.06
2022-10-30T17:52:44.578Z,44.31
2022-10-30T17:55:25.396Z,44.43
2022-10-30T17:57:52.656Z,44.45
2022-10-30T18:00:19.962Z,44.38
2022-10-30T18:02:47.251Z,44.17
2022-10-30T18:05:20.035Z,44.24
2022-10-30T18:07:47.172Z,44.24
2022-10-30T18:10:14.599Z,44.16
2022-10-30T18:12:41.672Z,44.01
2022-10-30T18:15:35.812Z,43.84
2022-10-30T18:18:03.871Z,44.10
2022-10-30T18:20:31.318Z,44.26
2022-10-30T18:22:58.742Z,44.37
2022-10-30T18:25:33.423Z,44.56
2022-10-30T18:28:00.492Z,44.53
2022-10-30T18:30:29.174Z,44.57
2022-10-30T18:32:56.981Z,44.33
2022-10-30T18:35:37.999Z,44.34
2022-10-30T18:38:06.612Z,44.55
2022-10-30T18:40:33.624Z,44.81
2022-10-30T18:43:01.567Z,44.75
2022-10-30T18:45:41.028Z,44.84
2022-10-30T18:48:09.018Z,44.87
2022-10-30T18:50:37.154Z,45.21
2022-10-30T18:53:06.686Z,45.04
2022-10-30T18:55:36.652Z,45.00
2022-10-30T18:58:04.549Z,45.07
2022-10-30T19:00:45.060Z,45.34
2022-10-30T19:03:19.169Z,45.23
2022-10-30T19:05:47.353Z,45.47
2022-10-30T19:08:14.706Z,45.62
2022-10-30T19:10:44.769Z,45.50
2022-10-30T19:13:22.217Z,45.73
2022-10-30T19:15:59.942Z,45.78
2022-10-30T19:18:28.532Z,45.81
2022-10-30T19:21:04.496Z,46.00
2022-10-30T19:23:33.388Z,46.02
2022-10-30T19:26:00.443Z,46.18
2022-10-30T19:28:27.442Z,46.19
2022-10-30T19:30:54.976Z,46.42
2022-10-30T19:33:23.665Z,46.64
2022-10-30T19:35:58.444Z,46.95
2022-10-30T19:38:56.210Z,46.91
2022-10-30T19:41:25.034Z,46.95
2022-10-30T19:43:53.115Z,47.01
2022-10-30T19:46:21.018Z,47.16
2022-10-30T19:48:57.123Z,47.10
2022-10-30T19:51:25.493Z,47.16
2022-10-30T19:53:54.059Z,47.32
2022-10-30T19:56:21.755Z,47.30
2022-10-30T19:58:49.118Z,47.57
2022-10-30T20:01:16.474Z,47.58
2022-10-30T20:03:43.668Z,47.89
2022-10-30T20:06:14.348Z,47.87
2022-10-30T20:08:42.166Z,47.76
2022-10-30T20:11:09.065Z,47.98
2022-10-30T20:13:37.354Z,48.16
2022-10-30T20:16:05.410Z,48.16
2022-10-30T20:18:34.752Z,48.40
2022-10-30T20:21:04.692Z,48.37
2022-10-30T20:23:32.197Z,48.71
2022-10-30T20:26:25.199Z,48.94
2022-10-30T20:28:53.001Z,48.99
2022-10-30T20:35:44.110Z,49.33
2022-10-30T22:08:39.247Z,52.39
2022-10-30T22:11:10.899Z,52.25
2022-10-30T22:13:38.709Z,52.46
2022-10-30T22:19:01.664Z,52.17
2022-10-30T22:24:55.405Z,52.62
2022-10-30T22:27:22.333Z,52.38
2022-10-30T22:29:49.347Z,52.26
2022-10-30T22:32:16.314Z,52.58
2022-10-30T22:34:43.323Z,52.53
2022-10-30T22:37:10.223Z,52.54
2022-10-30T22:39:37.273Z,52.69
2022-10-30T22:42:04.216Z,52.78
2022-10-30T22:44:31.111Z,52.77
2022-10-30T22:46:58.007Z,52.27
2022-10-30T22:49:24.996Z,52.43
2022-10-30T22:51:51.855Z,52.52
2022-10-30T22:54:18.751Z,52.70
2022-10-30T22:56:45.558Z,52.52
2022-10-30T22:59:13.772Z,53.17
2022-10-30T23:01:41.982Z,52.74
2022-10-30T23:04:11.752Z,52.60
2022-10-30T23:06:38.787Z,52.55
2022-10-30T23:09:16.229Z,52.58
2022-10-30T23:16:01.716Z,52.93
2022-10-30T23:18:28.985Z,52.96
2022-10-30T23:21:01.149Z,53.14
2022-10-30T23:23:28.617Z,53.00
2022-10-30T23:25:55.696Z,53.55
2022-10-30T23:28:22.626Z,53.19
2022-10-30T23:30:49.566Z,53.36
2022-10-30T23:33:16.464Z,53.54
2022-10-30T23:35:43.402Z,53.30
2022-10-30T23:38:35.031Z,53.40
2022-10-30T23:41:01.913Z,53.35
2022-10-30T23:43:28.828Z,54.79
2022-10-30T23:45:55.775Z,54.27
2022-10-30T23:48:22.666Z,53.75
2022-10-30T23:50:49.535Z,54.24
2022-10-30T23:53:16.447Z,54.10
2022-10-30T23:55:54.638Z,54.68
2022-10-30T23:58:21.995Z,54.41
